createdAt,value
2023-05-19T00:01:16.724Z,48.42
2023-05-19T00:03:54.894Z,47.88
2023-05-19T00:06:27.304Z,45.70
2023-05-19T00:08:59.520Z,44.33
2023-05-19T00:11:28.092Z,45.47
2023-05-19T00:13:55.976Z,44.15
2023-05-19T00:16:23.806Z,45.00
2023-05-19T00:18:51.834Z,44.70
2023-05-19T00:21:18.876Z,46.10
2023-05-19T00:23:45.707Z,46.25
2023-05-19T00:26:12.783Z,44.90
2023-05-19T00:28:39.450Z,48.25
2023-05-19T00:31:06.457Z,48.15
2023-05-19T00:33:33.957Z,46.80
2023-05-19T00:36:05.862Z,47.38
2023-05-19T00:38:34.596Z,45.28
2023-05-19T00:41:02.620Z,48.47
2023-05-19T00:43:34.335Z,45.92
2023-05-19T00:46:01.013Z,44.60
2023-05-19T00:48:27.742Z,43.45
2023-05-19T00:51:02.079Z,40.67
2023-05-19T00:55:56.528Z,36.67
2023-05-19T00:58:25.652Z,37.65
2023-05-19T01:00:53.071Z,39.70
2023-05-19T01:03:20.538Z,40.13
2023-05-19T01:05:49.925Z,40.55
2023-05-19T01:08:16.583Z,39.33
2023-05-19T01:10:43.234Z,42.35
2023-05-19T01:13:10.110Z,44.33
2023-05-19T01:15:51.892Z,44.25
2023-05-19T01:18:29.500Z,41.63
2023-05-19T01:21:22.966Z,43.47
2023-05-19T01:24:06.342Z,43.72
2023-05-19T01:26:54.308Z,45.55
2023-05-19T01:30:08.675Z,44.67
2023-05-19T01:32:36.687Z,46.67
2023-05-19T01:35:05.633Z,48.80
2023-05-19T01:37:32.411Z,49.33
2023-05-19T01:39:59.098Z,52.97
2023-05-19T01:42:27.320Z,53.15
2023-05-19T01:44:55.502Z,54.08
2023-05-19T01:47:22.724Z,55.38
2023-05-19T01:49:49.350Z,56.03
2023-05-19T01:52:15.965Z,57.65
2023-05-19T01:54:42.637Z,56.78
2023-05-19T01:57:20.091Z,60.20
2023-05-19T01:59:54.535Z,58.17
2023-05-19T02:02:31.430Z,55.97
2023-05-19T02:05:09.592Z,57.80
2023-05-19T02:07:44.309Z,59.72
2023-05-19T02:10:14.842Z,58.78
2023-05-19T02:12:46.164Z,58.67
2023-05-19T02:15:18.057Z,57.30
2023-05-19T02:17:51.866Z,57.28
2023-05-19T02:20:18.865Z,57.55
2023-05-19T02:22:45.845Z,57.17
2023-05-19T02:25:12.519Z,60.85
2023-05-19T02:27:39.703Z,60.40
2023-05-19T02:30:07.247Z,62.40
2023-05-19T02:32:33.999Z,65.30
2023-05-19T02:35:00.696Z,62.22
2023-05-19T02:37:31.208Z,63.95
2023-05-19T02:39:58.155Z,66.00
2023-05-19T02:42:24.843Z,69.75
2023-05-19T02:44:52.427Z,69.53
2023-05-19T02:47:19.095Z,73.78
2023-05-19T02:49:45.955Z,73.55
2023-05-19T02:52:12.625Z,76.60
2023-05-19T02:54:39.241Z,77.60
2023-05-19T02:57:06.853Z,75.82
2023-05-19T02:59:33.710Z,81.18
2023-05-19T03:02:01.795Z,76.85
2023-05-19T03:04:29.891Z,74.63
2023-05-19T03:07:00.099Z,73.90
2023-05-19T03:09:26.796Z,74.10
2023-05-19T03:11:53.423Z,76.07
2023-05-19T03:14:24.154Z,75.70
2023-05-19T03:16:51.115Z,78.07
2023-05-19T03:19:18.300Z,81.43
2023-05-19T03:21:46.057Z,83.60
2023-05-19T03:24:12.960Z,85.30
2023-05-19T03:26:39.602Z,86.55
2023-05-19T03:29:06.368Z,92.68
2023-05-19T03:31:34.114Z,97.40
2023-05-19T03:34:00.988Z,104.47
2023-05-19T03:36:32.024Z,108.15
2023-05-19T03:38:59.562Z,116.13
2023-05-19T03:41:26.128Z,115.63
2023-05-19T03:43:52.752Z,111.75
2023-05-19T03:46:19.462Z,119.00
2023-05-19T03:48:46.181Z,119.68
2023-05-19T03:51:13.572Z,120.72
2023-05-19T03:53:41.241Z,124.32
2023-05-19T03:56:08.891Z,127.25
2023-05-19T03:58:37.096Z,126.20
2023-05-19T04:01:03.743Z,131.40
2023-05-19T04:03:30.593Z,128.70
2023-05-19T04:05:57.229Z,128.07
2023-05-19T04:08:23.849Z,129.23
2023-05-19T04:10:50.450Z,127.85
2023-05-19T04:13:17.104Z,129.88
2023-05-19T04:15:43.864Z,132.52
2023-05-19T04:18:10.963Z,134.05
2023-05-19T04:20:37.601Z,133.50
2023-05-19T04:23:04.305Z,133.35
2023-05-19T04:25:30.929Z,134.00
2023-05-19T04:27:57.973Z,139.48
2023-05-19T04:30:25.048Z,131.15
2023-05-19T04:32:53.803Z,131.40
2023-05-19T04:35:21.019Z,132.23
2023-05-19T04:37:48.523Z,131.40
2023-05-19T04:40:15.984Z,131.73
2023-05-19T04:42:42.846Z,135.77
2023-05-19T04:45:10.167Z,133.07
2023-05-19T04:47:39.311Z,137.15
2023-05-19T04:50:07.484Z,145.00
2023-05-19T04:52:34.152Z,138.75
2023-05-19T04:55:00.918Z,139.60
2023-05-19T04:57:27.546Z,141.98
2023-05-19T04:59:59.883Z,139.52
2023-05-19T05:02:29.249Z,132.73
2023-05-19T05:04:56.757Z,133.23
2023-05-19T05:07:23.772Z,132.88
2023-05-19T05:09:50.540Z,132.20
2023-05-19T05:12:18.609Z,134.63
2023-05-19T05:14:45.852Z,137.98
2023-05-19T05:17:13.376Z,138.70
2023-05-19T05:19:40.689Z,133.05
2023-05-19T05:22:07.846Z,124.55
2023-05-19T05:24:34.836Z,118.38
2023-05-19T05:27:01.519Z,122.20
2023-05-19T05:29:28.203Z,121.00
2023-05-19T05:31:54.847Z,116.28
2023-05-19T05:34:21.555Z,115.35
2023-05-19T05:36:48.288Z,103.82
2023-05-19T05:39:14.985Z,105.57
2023-05-19T05:41:41.570Z,105.97
2023-05-19T05:44:08.253Z,103.55
2023-05-19T05:46:35.550Z,96.20
2023-05-19T05:49:02.564Z,96.43
2023-05-19T05:51:29.450Z,92.78
2023-05-19T05:53:57.552Z,92.28
2023-05-19T05:56:24.435Z,84.80
2023-05-19T05:58:51.077Z,89.53
2023-05-19T06:01:18.005Z,76.80
2023-05-19T06:03:45.133Z,74.05
2023-05-19T06:06:12.471Z,63.90
2023-05-19T06:08:39.110Z,61.10
2023-05-19T06:11:10.333Z,60.75
2023-05-19T06:13:38.073Z,53.33
2023-05-19T06:16:05.916Z,57.75
2023-05-19T06:18:32.631Z,67.38
2023-05-19T06:20:59.349Z,70.82
2023-05-19T06:23:27.008Z,80.82
2023-05-19T06:25:53.645Z,83.60
2023-05-19T06:28:20.398Z,88.32
2023-05-19T06:30:47.057Z,100.38
2023-05-19T06:33:13.679Z,108.68
2023-05-19T06:35:40.560Z,109.10
2023-05-19T06:38:07.177Z,115.13
2023-05-19T06:40:34.093Z,117.57
2023-05-19T06:43:00.872Z,123.95
2023-05-19T06:45:27.534Z,124.00
2023-05-19T06:47:54.741Z,117.43
2023-05-19T06:50:22.466Z,143.88
2023-05-19T06:52:49.104Z,182.70
2023-05-19T06:55:17.974Z,192.65
2023-05-19T06:57:44.650Z,204.63
2023-05-19T07:00:13.420Z,197.30
2023-05-19T07:02:42.009Z,175.43
2023-05-19T07:05:10.273Z,195.40
2023-05-19T07:07:36.855Z,179.10
2023-05-19T07:10:03.706Z,210.18
2023-05-19T07:12:30.621Z,243.68
2023-05-19T07:14:57.279Z,250.00
2023-05-19T07:17:23.885Z,256.00
2023-05-19T07:19:50.747Z,242.88
2023-05-19T07:22:17.328Z,195.82
2023-05-19T07:24:44.031Z,192.05
2023-05-19T07:27:10.822Z,218.40
2023-05-19T07:29:37.436Z,154.50
2023-05-19T07:32:04.435Z,163.88
2023-05-19T07:34:31.233Z,145.60
2023-05-19T07:36:57.893Z,122.57
2023-05-19T07:39:27.851Z,25.60
2023-05-19T07:41:55.809Z,14.88
2023-05-19T07:44:22.516Z,19.15
2023-05-19T07:46:49.174Z,12.30
2023-05-19T07:49:15.812Z,12.50
2023-05-19T07:51:42.469Z,12.32
2023-05-19T07:54:09.279Z,13.88
2023-05-19T07:56:36.261Z,12.15
2023-05-19T07:59:03.827Z,12.52
2023-05-19T08:01:31.186Z,12.60
2023-05-19T08:03:58.010Z,10.48
2023-05-19T08:06:25.393Z,10.02
2023-05-19T08:08:52.420Z,12.07
2023-05-19T08:11:19.051Z,10.70
2023-05-19T08:13:48.688Z,10.15
2023-05-19T08:16:16.227Z,9.60
2023-05-19T08:18:42.891Z,10.00
2023-05-19T08:21:09.576Z,10.35
2023-05-19T08:23:37.440Z,9.50
2023-05-19T08:26:04.465Z,10.20
2023-05-19T08:28:31.521Z,10.30
2023-05-19T08:30:58.293Z,9.57
2023-05-19T08:33:25.021Z,9.88
2023-05-19T08:35:51.763Z,9.30
2023-05-19T08:38:18.421Z,8.98
2023-05-19T08:40:47.432Z,9.48
2023-05-19T08:43:14.147Z,9.25
2023-05-19T08:45:48.390Z,10.15
2023-05-19T08:48:17.237Z,10.07
2023-05-19T08:50:57.207Z,9.48
2023-05-19T08:53:33.648Z,10.27
2023-05-19T08:56:24.442Z,9.90
2023-05-19T08:58:51.622Z,9.15
2023-05-19T09:01:19.570Z,10.77
2023-05-19T09:03:47.532Z,10.20
2023-05-19T09:06:14.277Z,10.90
2023-05-19T09:08:42.338Z,10.77
2023-05-19T09:11:10.206Z,10.18
2023-05-19T09:13:37.045Z,10.35
2023-05-19T09:16:04.285Z,11.02
2023-05-19T09:18:31.842Z,10.30
2023-05-19T09:21:00.598Z,10.27
2023-05-19T09:23:29.884Z,10.98
2023-05-19T09:25:57.336Z,10.88
2023-05-19T09:28:34.532Z,10.32
2023-05-19T09:31:05.398Z,10.23
2023-05-19T09:33:36.674Z,11.15
2023-05-19T09:36:06.207Z,10.07
2023-05-19T09:38:33.214Z,9.80
2023-05-19T09:41:01.057Z,10.82
2023-05-19T09:43:33.628Z,11.13
2023-05-19T09:46:06.081Z,10.55
2023-05-19T09:48:34.662Z,9.32
2023-05-19T09:51:02.398Z,10.63
2023-05-19T09:53:32.708Z,10.13
2023-05-19T09:56:01.974Z,10.40
2023-05-19T09:58:34.752Z,10.60
2023-05-19T10:01:02.204Z,12.05
2023-05-19T10:03:29.976Z,11.60
2023-05-19T10:05:57.562Z,19.80
2023-05-19T10:08:26.603Z,17.42
2023-05-19T10:10:54.089Z,14.25
2023-05-19T10:13:22.218Z,12.38
2023-05-19T10:15:57.976Z,14.27
2023-05-19T10:18:26.703Z,13.02
2023-05-19T10:20:54.361Z,13.95
2023-05-19T10:23:22.294Z,13.57
2023-05-19T10:25:50.523Z,14.75
2023-05-19T10:28:21.155Z,16.65
2023-05-19T10:30:50.958Z,17.00
2023-05-19T10:33:20.027Z,17.17
2023-05-19T10:36:08.911Z,16.65
2023-05-19T10:38:53.351Z,16.33
2023-05-19T10:43:53.769Z,15.63
2023-05-19T10:46:25.492Z,17.60
2023-05-19T10:48:52.319Z,16.58
2023-05-19T10:51:19.048Z,15.77
2023-05-19T10:53:50.200Z,15.35
2023-05-19T10:56:36.733Z,14.55
2023-05-19T10:59:03.801Z,13.32
2023-05-19T11:01:33.309Z,13.57
2023-05-19T11:04:11.011Z,11.48
2023-05-19T11:06:38.791Z,12.68
2023-05-19T11:09:34.087Z,11.38
2023-05-19T11:12:06.923Z,11.57
2023-05-19T11:14:34.934Z,10.35
2023-05-19T11:17:01.657Z,9.45
2023-05-19T11:19:33.217Z,9.43
2023-05-19T11:22:11.073Z,9.70
2023-05-19T11:24:40.406Z,8.85
2023-05-19T11:27:26.161Z,8.68
2023-05-19T11:29:53.973Z,9.75
2023-05-19T11:32:22.607Z,8.43
2023-05-19T11:34:50.303Z,8.88
2023-05-19T11:37:17.262Z,8.90
2023-05-19T11:39:46.403Z,9.15
2023-05-19T11:42:13.201Z,9.32
2023-05-19T11:44:41.438Z,9.35
2023-05-19T11:47:08.669Z,9.43
2023-05-19T11:49:35.434Z,10.27
2023-05-19T11:52:02.646Z,9.95
2023-05-19T11:54:32.264Z,10.30
2023-05-19T11:57:04.014Z,10.57
2023-05-19T11:59:33.471Z,9.77
2023-05-19T12:02:26.094Z,10.32
2023-05-19T12:04:53.920Z,9.65
2023-05-19T12:07:23.471Z,9.77
2023-05-19T12:09:52.143Z,9.10
2023-05-19T12:12:20.462Z,9.88
2023-05-19T12:14:48.031Z,9.55
2023-05-19T12:17:17.091Z,9.15
2023-05-19T12:19:45.663Z,9.50
2023-05-19T12:22:14.676Z,9.63
2023-05-19T12:24:43.174Z,9.65
2023-05-19T12:27:18.464Z,9.38
2023-05-19T12:29:51.748Z,8.32
2023-05-19T12:32:19.699Z,8.73
2023-05-19T12:34:46.412Z,8.77
2023-05-19T12:37:13.144Z,9.60
2023-05-19T12:39:40.726Z,8.52
2023-05-19T12:42:12.393Z,9.10
2023-05-19T12:44:44.724Z,8.55
2023-05-19T12:47:11.310Z,9.13
2023-05-19T12:49:53.288Z,9.18
2023-05-19T12:52:23.081Z,8.95
2023-05-19T12:55:01.026Z,8.60
2023-05-19T12:57:35.127Z,8.73
2023-05-19T13:00:07.156Z,9.23
2023-05-19T13:02:36.176Z,9.25
2023-05-19T13:05:05.225Z,9.20
2023-05-19T13:07:32.229Z,9.05
2023-05-19T13:09:58.916Z,8.50
2023-05-19T13:12:26.167Z,9.10
2023-05-19T13:14:55.420Z,8.15
2023-05-19T13:17:22.346Z,9.02
2023-05-19T13:19:49.175Z,7.90
2023-05-19T13:22:15.797Z,7.85
2023-05-19T13:24:42.417Z,8.30
2023-05-19T13:27:09.079Z,8.20
2023-05-19T13:29:36.093Z,7.80
2023-05-19T13:32:02.722Z,7.53
2023-05-19T13:34:29.388Z,7.60
2023-05-19T13:36:56.099Z,7.82
2023-05-19T13:39:22.740Z,7.20
2023-05-19T13:41:49.462Z,7.68
2023-05-19T13:44:16.729Z,7.70
2023-05-19T13:46:45.646Z,7.60
2023-05-19T13:49:13.581Z,7.68
2023-05-19T13:51:43.732Z,7.30
2023-05-19T13:54:10.740Z,7.60
2023-05-19T13:56:37.500Z,7.50
2023-05-19T13:59:04.275Z,7.35
2023-05-19T14:01:31.087Z,7.57
2023-05-19T14:03:57.868Z,7.50
2023-05-19T14:06:24.879Z,7.38
2023-05-19T14:08:51.498Z,7.28
2023-05-19T14:11:21.680Z,7.30
2023-05-19T14:13:52.515Z,7.57
2023-05-19T14:16:22.074Z,8.00
2023-05-19T14:18:49.296Z,7.88
2023-05-19T14:21:15.968Z,7.50
2023-05-19T14:23:42.578Z,7.55
2023-05-19T14:26:09.234Z,7.75
2023-05-19T14:28:35.835Z,7.75
2023-05-19T14:31:02.553Z,7.30
2023-05-19T14:33:32.709Z,7.95
2023-05-19T14:36:01.639Z,7.63
2023-05-19T14:38:29.503Z,7.57
2023-05-19T14:40:56.513Z,7.40
2023-05-19T14:43:23.393Z,7.15
2023-05-19T14:45:50.117Z,7.10
2023-05-19T14:48:18.187Z,6.75
2023-05-19T14:50:46.529Z,6.90
2023-05-19T14:53:13.163Z,6.70
2023-05-19T14:55:39.972Z,7.07
2023-05-19T14:58:15.830Z,6.60
2023-05-19T15:00:53.318Z,6.97
2023-05-19T15:03:20.052Z,7.22
2023-05-19T15:05:47.039Z,7.22
2023-05-19T15:08:13.728Z,7.18
2023-05-19T15:10:40.438Z,7.07
2023-05-19T15:13:07.117Z,7.03
2023-05-19T15:15:33.779Z,7.32
2023-05-19T15:18:00.663Z,7.53
2023-05-19T15:20:29.448Z,7.20
2023-05-19T15:22:56.366Z,7.43
2023-05-19T15:25:23.030Z,7.32
2023-05-19T15:27:49.700Z,7.07
2023-05-19T15:30:16.459Z,7.55
2023-05-19T15:32:43.364Z,6.85
2023-05-19T15:35:10.137Z,7.68
2023-05-19T15:37:36.843Z,7.28
2023-05-19T15:40:04.455Z,7.45
2023-05-19T15:42:31.161Z,7.10
2023-05-19T15:44:57.790Z,6.93
2023-05-19T15:47:24.648Z,7.10
2023-05-19T15:49:51.599Z,6.85
2023-05-19T15:52:18.301Z,6.70
2023-05-19T15:54:45.030Z,7.00
2023-05-19T15:57:13.647Z,6.80
2023-05-19T15:59:40.399Z,7.45
2023-05-19T16:02:07.758Z,7.28
2023-05-19T16:04:34.465Z,7.10
2023-05-19T16:07:01.052Z,7.05
2023-05-19T16:09:27.705Z,7.13
2023-05-19T16:11:54.414Z,7.35
2023-05-19T16:14:20.998Z,7.00
2023-05-19T16:16:47.665Z,7.20
2023-05-19T16:19:14.425Z,7.32
2023-05-19T16:21:41.095Z,7.10
2023-05-19T16:24:07.694Z,7.63
2023-05-19T16:26:34.621Z,7.13
2023-05-19T16:29:01.223Z,7.38
2023-05-19T16:31:27.990Z,7.40
2023-05-19T16:33:54.629Z,7.05
2023-05-19T16:36:22.943Z,8.00
2023-05-19T16:38:49.596Z,8.38
2023-05-19T16:41:16.265Z,7.93
2023-05-19T16:43:43.063Z,7.60
2023-05-19T16:46:12.214Z,8.90
2023-05-19T16:48:38.989Z,8.43
2023-05-19T16:51:05.692Z,8.40
2023-05-19T16:53:32.376Z,8.35
2023-05-19T16:56:01.941Z,10.13
2023-05-19T16:58:30.309Z,9.00
2023-05-19T17:00:57.849Z,9.73
2023-05-19T17:03:24.784Z,10.63
2023-05-19T17:05:52.521Z,10.85
2023-05-19T17:08:19.214Z,10.75
2023-05-19T17:10:47.715Z,11.25
2023-05-19T17:13:14.449Z,11.18
2023-05-19T17:15:43.245Z,11.80
2023-05-19T17:18:12.575Z,11.50
2023-05-19T17:20:39.316Z,11.98
2023-05-19T17:23:06.096Z,10.82
2023-05-19T17:25:33.577Z,11.60
2023-05-19T17:28:00.462Z,11.27
2023-05-19T17:30:27.137Z,11.32
2023-05-19T17:32:53.811Z,11.80
2023-05-19T17:35:20.700Z,11.02
2023-05-19T17:37:47.319Z,10.63
2023-05-19T17:40:14.067Z,11.07
2023-05-19T17:42:40.721Z,10.43
2023-05-19T17:45:08.093Z,10.00
2023-05-19T17:47:34.781Z,9.52
2023-05-19T17:50:01.521Z,10.25
2023-05-19T17:52:28.464Z,9.85
2023-05-19T17:54:55.338Z,9.77
2023-05-19T17:57:25.278Z,9.63
2023-05-19T17:59:52.217Z,9.68
2023-05-19T18:02:19.300Z,9.00
2023-05-19T18:04:46.483Z,9.90
2023-05-19T18:07:14.365Z,9.40
2023-05-19T18:09:46.055Z,9.45
2023-05-19T18:12:12.854Z,9.98
2023-05-19T18:14:39.919Z,10.30
2023-05-19T18:17:06.610Z,10.98
2023-05-19T18:19:33.364Z,11.93
2023-05-19T18:21:59.973Z,12.30
2023-05-19T18:24:26.594Z,11.77
2023-05-19T18:26:53.168Z,12.45
2023-05-19T18:29:19.801Z,13.77
2023-05-19T18:31:46.453Z,14.98
2023-05-19T18:34:14.053Z,15.68
2023-05-19T18:36:41.408Z,18.67
2023-05-19T18:39:10.052Z,14.25
2023-05-19T18:41:37.693Z,12.57
2023-05-19T18:44:06.261Z,12.00
2023-05-19T18:46:33.719Z,10.65
2023-05-19T18:49:00.614Z,10.02
2023-05-19T18:51:27.221Z,11.18
2023-05-19T18:53:53.950Z,13.23
2023-05-19T18:56:25.119Z,13.95
2023-05-19T18:58:52.213Z,17.52
2023-05-19T19:01:18.898Z,22.00
2023-05-19T19:03:49.166Z,24.27
2023-05-19T19:06:20.816Z,29.80
2023-05-19T19:08:47.616Z,38.17
2023-05-19T19:11:14.193Z,48.80
2023-05-19T19:13:40.878Z,55.72
2023-05-19T19:16:07.591Z,60.05
2023-05-19T19:18:36.380Z,61.33
2023-05-19T19:21:05.444Z,54.03
2023-05-19T19:23:32.583Z,46.60
2023-05-19T19:25:59.276Z,42.70
2023-05-19T19:28:26.170Z,36.78
2023-05-19T19:30:52.784Z,29.80
2023-05-19T19:33:19.560Z,24.67
2023-05-19T19:35:46.985Z,20.00
2023-05-19T19:38:13.840Z,17.88
2023-05-19T19:40:40.517Z,16.38
2023-05-19T19:43:07.260Z,14.95
2023-05-19T19:45:34.928Z,14.75
2023-05-19T19:48:01.831Z,16.63
2023-05-19T19:50:28.657Z,14.63
2023-05-19T19:52:55.423Z,13.35
2023-05-19T19:55:22.131Z,16.20
2023-05-19T19:57:51.104Z,16.83
2023-05-19T20:00:18.585Z,16.77
2023-05-19T20:03:03.068Z,17.70
2023-05-19T20:05:31.421Z,17.98
2023-05-19T20:07:58.029Z,17.65
2023-05-19T20:10:24.703Z,16.80
2023-05-19T20:12:51.990Z,16.30
2023-05-19T20:15:19.515Z,17.83
2023-05-19T20:17:46.228Z,15.20
2023-05-19T20:20:13.319Z,15.57
2023-05-19T20:22:40.197Z,15.30
2023-05-19T20:25:07.345Z,14.07
2023-05-19T20:27:33.911Z,13.18
2023-05-19T20:30:00.856Z,14.52
2023-05-19T20:32:27.547Z,14.90
2023-05-19T20:34:54.273Z,15.95
2023-05-19T20:37:22.234Z,15.45
2023-05-19T20:39:48.931Z,13.52
2023-05-19T20:42:15.563Z,13.32
2023-05-19T20:44:42.524Z,13.50
2023-05-19T20:47:09.177Z,13.68
2023-05-19T20:49:36.028Z,13.52
2023-05-19T20:52:02.665Z,14.40
2023-05-19T20:54:29.320Z,14.10
2023-05-19T20:56:56.050Z,14.93
2023-05-19T20:59:22.802Z,15.63
2023-05-19T21:01:49.544Z,14.95
2023-05-19T21:04:16.345Z,15.27
2023-05-19T21:06:43.045Z,15.05
2023-05-19T21:09:10.920Z,16.13
2023-05-19T21:11:37.640Z,15.25
2023-05-19T21:14:04.500Z,14.52
2023-05-19T21:16:31.569Z,14.05
2023-05-19T21:18:58.394Z,15.95
2023-05-19T21:21:25.318Z,16.02
2023-05-19T21:23:52.004Z,15.38
2023-05-19T21:26:18.768Z,14.73
2023-05-19T21:28:45.566Z,14.45
2023-05-19T21:31:12.509Z,16.27
2023-05-19T21:33:39.134Z,14.00
2023-05-19T21:36:06.019Z,15.15
2023-05-19T21:38:32.637Z,15.40
2023-05-19T21:40:59.330Z,16.02
2023-05-19T21:43:26.093Z,15.68
2023-05-19T21:45:52.736Z,15.23
2023-05-19T21:48:19.553Z,16.50
2023-05-19T21:50:46.242Z,14.88
2023-05-19T21:53:12.860Z,15.77
2023-05-19T21:55:39.614Z,15.48
2023-05-19T21:58:06.241Z,16.35
2023-05-19T22:00:33.142Z,15.40
2023-05-19T22:03:00.199Z,16.70
2023-05-19T22:05:29.040Z,16.95
2023-05-19T22:07:55.880Z,17.23
2023-05-19T22:10:22.582Z,17.25
2023-05-19T22:12:49.203Z,20.45
2023-05-19T22:15:15.971Z,20.33
2023-05-19T22:17:42.899Z,22.60
2023-05-19T22:20:10.260Z,22.00
2023-05-19T22:22:36.861Z,23.45
2023-05-19T22:25:03.900Z,28.33
2023-05-19T22:27:30.766Z,29.08
2023-05-19T22:29:59.677Z,36.92
2023-05-19T22:32:26.412Z,44.25
2023-05-19T22:34:53.170Z,47.15
2023-05-19T22:37:21.080Z,44.85
2023-05-19T22:39:47.680Z,46.38
2023-05-19T22:42:14.627Z,54.65
2023-05-19T22:44:41.344Z,72.78
2023-05-19T22:47:13.648Z,77.68
2023-05-19T22:49:43.647Z,84.85
2023-05-19T22:52:11.284Z,95.97
2023-05-19T22:54:38.207Z,107.70
2023-05-19T22:57:05.286Z,119.28
2023-05-19T22:59:31.979Z,128.07
2023-05-19T23:01:58.619Z,142.07
2023-05-19T23:04:25.307Z,151.77
2023-05-19T23:06:52.302Z,167.52
2023-05-19T23:09:19.092Z,176.20
2023-05-19T23:11:46.265Z,181.88
2023-05-19T23:14:12.950Z,207.85
2023-05-19T23:16:39.685Z,230.85
2023-05-19T23:19:06.378Z,254.63
2023-05-19T23:21:33.149Z,255.77
2023-05-19T23:24:00.011Z,276.67
2023-05-19T23:26:27.005Z,281.27
2023-05-19T23:28:53.610Z,268.63
2023-05-19T23:31:20.354Z,265.63
2023-05-19T23:33:47.154Z,258.67
2023-05-19T23:36:13.947Z,262.80
2023-05-19T23:38:40.583Z,264.95
2023-05-19T23:41:07.177Z,274.80
2023-05-19T23:43:33.891Z,274.70
2023-05-19T23:46:01.016Z,266.50
2023-05-19T23:48:29.047Z,280.27
2023-05-19T23:50:55.832Z,293.42
2023-05-19T23:53:22.496Z,311.08
2023-05-19T23:55:49.325Z,335.52
2023-05-19T23:58:16.141Z,335.13
